Barbarossa — ZDFA4 — position and weather

sailwx.info

Track history (hours):
 
Tides and Currents Weather Stations Pressure Air Temp Water Temp Dewpoint Dewpoint Depression Visibility Wind Speed Wind Dir Waves Ship Positions

Barbarossa

Last reported at 2017-May-20 13:19 UTC. Time now 2017-May-29 13:17 UTC.
Position N 58°39' E 004°50'.
Warning: this ship's position is 8 days out of date.

Length 83 m; draft 3.9 m.

Type: Cargo ship. MMSI: 236029000.

Date/timePositionNaut miles runAvg speedWind from/ knotsBaromVisibWave heightAir tempDewpointWater temp
2017-May-20 13:19N 58°39' E 004°50'411.7
2017-May-20 13:00N 58°37' E 004°55'611.2
2017-May-20 12:30N 58°33' E 005°03'1311.7
2017-May-20 11:25N 58°24' E 005°19'512.0
2017-May-20 11:00N 58°20' E 005°26'611.5
2017-May-20 10:31N 58°17' E 005°35'611.3
2017-May-20 10:00N 58°13' E 005°43'611.5
2017-May-20 09:30N 58°09' E 005°51'611.6
2017-May-20 09:00N 58°06' E 005°60'612.2
2017-May-20 08:30N 58°02' E 006°08'612.0
2017-May-20 08:00N 57°58' E 006°17'611.8
2017-May-20 07:30N 57°54' E 006°25'611.2
2017-May-20 07:00N 57°51' E 006°34'611.1
2017-May-20 06:30N 57°48' E 006°43'611.4
2017-May-20 06:00N 57°48' E 006°53'612.4
2017-May-20 05:30N 57°47' E 007°05'612.2
2017-May-20 05:00N 57°47' E 007°17'612.6
2017-May-20 04:30N 57°47' E 007°28'612.3
2017-May-20 04:00N 57°46' E 007°40'611.9
2017-May-20 03:30N 57°46' E 007°51'611.8
2017-May-20 03:00N 57°46' E 008°02'6111.1
2017-May-19 21:30N 57°49' E 009°56'811.4
2017-May-19 20:47N 57°50' E 010°12'311.2
2017-May-19 20:30N 57°50' E 010°17'611.4
2017-May-19 20:00N 57°50' E 010°28'611.4
2017-May-19 19:30N 57°50' E 010°39'610.9
2017-May-19 18:56N 57°47' E 010°49'510.8
2017-May-19 18:30N 57°44' E 010°55'510.8
2017-May-19 18:00N 57°40' E 011°02'611.4
2017-May-19 17:30N 57°36' E 011°10'611.8
2017-May-19 17:01N 57°32' E 011°18'611.6
2017-May-19 16:30N 57°28' E 011°26'611.1
2017-May-19 16:00N 57°23' E 011°30'611.4
2017-May-19 15:30N 57°18' E 011°33'611.5
2017-May-19 15:00N 57°13' E 011°37'1111.3
2017-May-19 14:00N 57°02' E 011°44'610.9
2017-May-19 13:26N 56°56' E 011°48'610.6
2017-May-19 12:54N 56°51' E 011°52'510.7
2017-May-19 12:27N 56°46' E 011°55'710.8
2017-May-19 11:48N 56°39' E 011°58'3110.7
2017-May-19 08:54N 56°13' E 012°26'511.4
2017-May-19 08:30N 56°09' E 012°31'510.7
2017-May-19 08:01N 56°05' E 012°37'510.0
2017-May-19 07:31N 56°00' E 012°41'510.8
2017-May-19 07:01N 55°55' E 012°44'510.7
2017-May-19 06:30N 55°50' E 012°44'511.0
2017-May-19 06:01N 55°45' E 012°42'510.4
2017-May-19 05:30N 55°39' E 012°42'4 9.0
2017-May-19 05:00N 55°35' E 012°42'4 8.9
2017-May-19 04:31N 55°30' E 012°42'510.5
2017-May-19 04:00N 55°25' E 012°41'510.8
2017-May-19 03:30N 55°20' E 012°41'510.2
2017-May-19 03:00N 55°17' E 012°48'511.0
2017-May-19 02:30N 55°16' E 012°58'611.2
2017-May-19 02:00N 55°16' E 013°08'611.3
2017-May-19 01:29N 55°15' E 013°18'611.2
2017-May-19 00:58N 55°15' E 013°28'2011.4
2017-May-18 23:16N 55°13' E 014°02'611.2
2017-May-18 22:45N 55°13' E 014°12'310.6
2017-May-18 22:30N 55°14' E 014°17'611.3
2017-May-18 22:00N 55°18' E 014°23'611.4
2017-May-18 21:29N 55°23' E 014°29'611.5
2017-May-18 21:00N 55°27' E 014°35'611.3
2017-May-18 20:30N 55°30' E 014°44'611.1
2017-May-18 20:00N 55°33' E 014°52'611.1
2017-May-18 19:28N 55°36' E 015°02'511.0
2017-May-18 19:00N 55°38' E 015°09'611.2
2017-May-18 18:31N 55°41' E 015°18'611.4
2017-May-18 18:01N 55°44' E 015°26'611.3
2017-May-18 17:31N 55°47' E 015°35'611.3
2017-May-18 17:01N 55°50' E 015°44'611.2
2017-May-18 16:31N 55°53' E 015°52'611.2
2017-May-18 16:01N 55°55' E 016°01'611.2
2017-May-18 15:31N 55°58' E 016°10'611.2
2017-May-18 15:01N 56°01' E 016°19'1111.3
2017-May-18 14:01N 56°06' E 016°36'611.1
2017-May-18 13:31N 56°09' E 016°45'611.1
2017-May-18 13:01N 56°12' E 016°52'611.1
2017-May-18 12:30N 56°16' E 017°00'611.1
2017-May-18 11:57N 56°20' E 017°09'511.1
2017-May-18 11:30N 56°23' E 017°16'611.1
2017-May-18 10:59N 56°26' E 017°25'611.1
2017-May-18 10:25N 56°29' E 017°34'711.1
2017-May-18 09:47N 56°34' E 017°45'311.1
2017-May-18 09:30N 56°35' E 017°50'911.1
2017-May-18 08:42N 56°41' E 018°03'211.2
2017-May-18 08:30N 56°42' E 018°06'611.2
2017-May-18 08:00N 56°45' E 018°14'20910.7
2017-May-17 12:29N 59°22' E 022°36'511.1
2017-May-17 12:01N 59°23' E 022°46'2011.3
2017-May-17 10:14N 59°26' E 023°25'311.2
2017-May-17 09:59N 59°26' E 023°30'  
2017-May-13 09:18N 59°28' E 024°03'1111.2
2017-May-13 08:21N 59°27' E 023°42'411.0
2017-May-13 07:59N 59°26' E 023°34'510.9
2017-May-13 07:30N 59°26' E 023°24'2410.9
2017-May-13 05:21N 59°22' E 022°38'411.2
2017-May-13 05:00N 59°21' E 022°31'611.1
2017-May-13 04:30N 59°23' E 022°21'611.3
2017-May-13 04:00N 59°25' E 022°10'611.3
2017-May-13 03:30N 59°26' E 021°59'611.2
2017-May-13 03:00N 59°28' E 021°49'611.2
2017-May-13 02:27N 59°30' E 021°37'511.2
2017-May-13 02:00N 59°32' E 021°28'611.1
2017-May-13 01:30N 59°33' E 021°18'3110.9
2017-May-12 22:40N 59°45' E 020°20'211.2
2017-May-12 22:29N 59°45' E 020°17'511.1
2017-May-12 22:00N 59°45' E 020°06'510.9
2017-May-12 21:30N 59°45' E 019°55'611.6
2017-May-12 21:00N 59°46' E 019°44'611.2
2017-May-12 20:30N 59°50' E 019°36'611.7
2017-May-12 20:00N 59°54' E 019°29'611.3
2017-May-12 19:30N 59°59' E 019°21'611.5
2017-May-12 19:00N 60°03' E 019°14'611.5
2017-May-12 18:30N 60°07' E 019°06'611.0
2017-May-12 18:00N 60°12' E 019°01'611.1
2017-May-12 17:30N 60°18' E 019°00'611.3
2017-May-12 17:00N 60°23' E 018°60'  
Track history (hours):
 
Tides and Currents Weather Stations Pressure Air Temp Water Temp Dewpoint Dewpoint Depression Visibility Wind Speed Wind Dir Waves Ship Positions

Barbarossa

Last reported at 2017-May-20 13:19 UTC. Time now 2017-May-29 13:17 UTC.
Position N 58°39' E 004°50'.
Warning: this ship's position is 8 days out of date.

Length 83 m; draft 3.9 m.

Type: Cargo ship. MMSI: 236029000.

Date/timePositionNaut miles runAvg speedWind from/ knotsBaromVisibWave heightAir tempDewpointWater temp
2017-May-20 13:19N 58°39' E 004°50'411.7
2017-May-20 13:00N 58°37' E 004°55'611.2
2017-May-20 12:30N 58°33' E 005°03'1311.7
2017-May-20 11:25N 58°24' E 005°19'512.0
2017-May-20 11:00N 58°20' E 005°26'611.5
2017-May-20 10:31N 58°17' E 005°35'611.3
2017-May-20 10:00N 58°13' E 005°43'611.5
2017-May-20 09:30N 58°09' E 005°51'611.6
2017-May-20 09:00N 58°06' E 005°60'612.2
2017-May-20 08:30N 58°02' E 006°08'612.0
2017-May-20 08:00N 57°58' E 006°17'611.8
2017-May-20 07:30N 57°54' E 006°25'611.2
2017-May-20 07:00N 57°51' E 006°34'611.1
2017-May-20 06:30N 57°48' E 006°43'611.4
2017-May-20 06:00N 57°48' E 006°53'612.4
2017-May-20 05:30N 57°47' E 007°05'612.2
2017-May-20 05:00N 57°47' E 007°17'612.6
2017-May-20 04:30N 57°47' E 007°28'612.3
2017-May-20 04:00N 57°46' E 007°40'611.9
2017-May-20 03:30N 57°46' E 007°51'611.8
2017-May-20 03:00N 57°46' E 008°02'6111.1
2017-May-19 21:30N 57°49' E 009°56'811.4
2017-May-19 20:47N 57°50' E 010°12'311.2
2017-May-19 20:30N 57°50' E 010°17'611.4
2017-May-19 20:00N 57°50' E 010°28'611.4
2017-May-19 19:30N 57°50' E 010°39'610.9
2017-May-19 18:56N 57°47' E 010°49'510.8
2017-May-19 18:30N 57°44' E 010°55'510.8
2017-May-19 18:00N 57°40' E 011°02'611.4
2017-May-19 17:30N 57°36' E 011°10'611.8
2017-May-19 17:01N 57°32' E 011°18'611.6
2017-May-19 16:30N 57°28' E 011°26'611.1
2017-May-19 16:00N 57°23' E 011°30'611.4
2017-May-19 15:30N 57°18' E 011°33'611.5
2017-May-19 15:00N 57°13' E 011°37'1111.3
2017-May-19 14:00N 57°02' E 011°44'610.9
2017-May-19 13:26N 56°56' E 011°48'610.6
2017-May-19 12:54N 56°51' E 011°52'510.7
2017-May-19 12:27N 56°46' E 011°55'710.8
2017-May-19 11:48N 56°39' E 011°58'3110.7
2017-May-19 08:54N 56°13' E 012°26'511.4
2017-May-19 08:30N 56°09' E 012°31'510.7
2017-May-19 08:01N 56°05' E 012°37'510.0
2017-May-19 07:31N 56°00' E 012°41'510.8
2017-May-19 07:01N 55°55' E 012°44'510.7
2017-May-19 06:30N 55°50' E 012°44'511.0
2017-May-19 06:01N 55°45' E 012°42'510.4
2017-May-19 05:30N 55°39' E 012°42'4 9.0
2017-May-19 05:00N 55°35' E 012°42'4 8.9
2017-May-19 04:31N 55°30' E 012°42'510.5
2017-May-19 04:00N 55°25' E 012°41'510.8
2017-May-19 03:30N 55°20' E 012°41'510.2
2017-May-19 03:00N 55°17' E 012°48'511.0
2017-May-19 02:30N 55°16' E 012°58'611.2
2017-May-19 02:00N 55°16' E 013°08'611.3
2017-May-19 01:29N 55°15' E 013°18'611.2
2017-May-19 00:58N 55°15' E 013°28'2011.4
2017-May-18 23:16N 55°13' E 014°02'611.2
2017-May-18 22:45N 55°13' E 014°12'310.6
2017-May-18 22:30N 55°14' E 014°17'611.3
2017-May-18 22:00N 55°18' E 014°23'611.4
2017-May-18 21:29N 55°23' E 014°29'611.5
2017-May-18 21:00N 55°27' E 014°35'611.3
2017-May-18 20:30N 55°30' E 014°44'611.1
2017-May-18 20:00N 55°33' E 014°52'611.1
2017-May-18 19:28N 55°36' E 015°02'511.0
2017-May-18 19:00N 55°38' E 015°09'611.2
2017-May-18 18:31N 55°41' E 015°18'611.4
2017-May-18 18:01N 55°44' E 015°26'611.3
2017-May-18 17:31N 55°47' E 015°35'611.3
2017-May-18 17:01N 55°50' E 015°44'611.2
2017-May-18 16:31N 55°53' E 015°52'611.2
2017-May-18 16:01N 55°55' E 016°01'611.2
2017-May-18 15:31N 55°58' E 016°10'611.2
2017-May-18 15:01N 56°01' E 016°19'1111.3
2017-May-18 14:01N 56°06' E 016°36'611.1
2017-May-18 13:31N 56°09' E 016°45'611.1
2017-May-18 13:01N 56°12' E 016°52'611.1
2017-May-18 12:30N 56°16' E 017°00'611.1
2017-May-18 11:57N 56°20' E 017°09'511.1
2017-May-18 11:30N 56°23' E 017°16'611.1
2017-May-18 10:59N 56°26' E 017°25'611.1
2017-May-18 10:25N 56°29' E 017°34'711.1
2017-May-18 09:47N 56°34' E 017°45'311.1
2017-May-18 09:30N 56°35' E 017°50'911.1
2017-May-18 08:42N 56°41' E 018°03'211.2
2017-May-18 08:30N 56°42' E 018°06'611.2
2017-May-18 08:00N 56°45' E 018°14'20910.7
2017-May-17 12:29N 59°22' E 022°36'511.1
2017-May-17 12:01N 59°23' E 022°46'2011.3
2017-May-17 10:14N 59°26' E 023°25'311.2
2017-May-17 09:59N 59°26' E 023°30'  
2017-May-13 09:18N 59°28' E 024°03'1111.2
2017-May-13 08:21N 59°27' E 023°42'411.0
2017-May-13 07:59N 59°26' E 023°34'510.9
2017-May-13 07:30N 59°26' E 023°24'2410.9
2017-May-13 05:21N 59°22' E 022°38'411.2
2017-May-13 05:00N 59°21' E 022°31'611.1
2017-May-13 04:30N 59°23' E 022°21'611.3
2017-May-13 04:00N 59°25' E 022°10'611.3
2017-May-13 03:30N 59°26' E 021°59'611.2
2017-May-13 03:00N 59°28' E 021°49'611.2
2017-May-13 02:27N 59°30' E 021°37'511.2
2017-May-13 02:00N 59°32' E 021°28'611.1
2017-May-13 01:30N 59°33' E 021°18'3110.9
2017-May-12 22:40N 59°45' E 020°20'211.2
2017-May-12 22:29N 59°45' E 020°17'511.1
2017-May-12 22:00N 59°45' E 020°06'510.9
2017-May-12 21:30N 59°45' E 019°55'611.6
2017-May-12 21:00N 59°46' E 019°44'611.2
2017-May-12 20:30N 59°50' E 019°36'611.7
2017-May-12 20:00N 59°54' E 019°29'611.3
2017-May-12 19:30N 59°59' E 019°21'611.5
2017-May-12 19:00N 60°03' E 019°14'611.5
2017-May-12 18:30N 60°07' E 019°06'611.0
2017-May-12 18:00N 60°12' E 019°01'611.1
2017-May-12 17:30N 60°18' E 019°00'611.3
2017-May-12 17:00N 60°23' E 018°60'  

Dump ship's entire track history